Time;durP1;ratioP1;P1;durP2;ratioP2;P2;SDS_P1;SDS_P2;PMS_P1;PMS_P2;Temp;Humidity;BMP_temperature;BMP_pressure;BME280_temperature;BME280_humidity;BME280_pressure;Samples;Min_cycle;Max_cycle;Signal;HPM_P1;HPM_P2
2023/09/09 00:02:12;;;;;;;12.88;9.40;;;;;;;16.84;100.00;93033.13;4987581;28;20022;-80
2023/09/09 00:04:37;;;;;;;13.05;8.98;;;;;;;16.83;100.00;93034.19;5016690;28;20065;-80
2023/09/09 00:07:03;;;;;;;14.02;9.52;;;;;;;16.81;100.00;93033.72;5025151;28;20091;-80
2023/09/09 00:09:29;;;;;;;14.27;9.38;;;;;;;16.78;100.00;93026.41;5007969;28;20041;-80
2023/09/09 00:11:55;;;;;;;14.07;9.68;;;;;;;16.76;100.00;93025.94;5006725;28;20437;-80
2023/09/09 00:14:21;;;;;;;13.23;9.40;;;;;;;16.75;100.00;93027.03;5024284;28;20042;-80
2023/09/09 00:16:46;;;;;;;13.63;9.60;;;;;;;16.75;100.00;93028.88;5026986;28;20472;-78
2023/09/09 00:19:12;;;;;;;16.52;10.35;;;;;;;16.72;100.00;93027.63;5025907;28;20053;-80
2023/09/09 00:21:38;;;;;;;13.95;9.38;;;;;;;16.71;100.00;93030.63;5025314;28;20033;-80
2023/09/09 00:24:03;;;;;;;12.27;9.10;;;;;;;16.67;100.00;93017.22;5022329;28;20038;-80
2023/09/09 00:26:31;;;;;;;12.07;9.23;;;;;;;16.74;100.00;93025.47;5006139;28;20030;-80
2023/09/09 00:28:57;;;;;;;15.32;9.75;;;;;;;16.70;100.00;93023.75;5006056;28;20070;-80
2023/09/09 00:31:23;;;;;;;15.88;9.60;;;;;;;16.65;100.00;93022.03;5020058;28;20061;-80
2023/09/09 00:33:49;;;;;;;16.42;10.32;;;;;;;16.62;100.00;93033.25;4993373;28;20068;-80
2023/09/09 00:36:15;;;;;;;15.90;9.70;;;;;;;16.58;100.00;93024.38;5007702;28;20064;-80
2023/09/09 00:38:40;;;;;;;18.65;9.63;;;;;;;16.54;100.00;93029.50;5005348;28;20097;-80
2023/09/09 00:41:20;;;;;;;15.23;9.80;;;;;;;16.49;100.00;93020.94;4990622;28;20045;-80
2023/09/09 00:43:46;;;;;;;15.38;9.48;;;;;;;16.47;100.00;93031.06;4993054;28;20030;-80
2023/09/09 00:46:15;;;;;;;14.18;10.27;;;;;;;16.44;100.00;93025.28;5025790;28;20030;-80
2023/09/09 00:48:41;;;;;;;12.90;9.50;;;;;;;16.42;100.00;93024.06;5008671;28;20065;-80
2023/09/09 00:51:10;;;;;;;13.70;9.23;;;;;;;16.44;100.00;93027.94;4987913;28;20494;-80
2023/09/09 00:53:36;;;;;;;13.00;9.25;;;;;;;16.42;100.00;93022.19;5016452;28;20657;-80
2023/09/09 00:56:05;;;;;;;18.52;9.52;;;;;;;16.40;100.00;93018.28;5010815;28;20045;-80
2023/09/09 00:58:31;;;;;;;14.63;9.77;;;;;;;16.38;100.00;93018.59;5023480;28;20079;-80
2023/09/09 01:00:57;;;;;;;16.83;9.85;;;;;;;16.36;100.00;93020.75;5024800;28;20022;-80
2023/09/09 01:03:23;;;;;;;22.55;10.63;;;;;;;16.37;100.00;93011.75;5024294;28;20037;-80
2023/09/09 01:05:49;;;;;;;16.83;10.13;;;;;;;16.37;100.00;93014.41;5006063;28;20126;-80
2023/09/09 01:08:26;;;;;;;16.13;10.13;;;;;;;16.35;100.00;93008.66;5025374;28;20045;-80
2023/09/09 01:10:52;;;;;;;14.77;9.48;;;;;;;16.38;100.00;93015.94;5025362;28;20038;-80
2023/09/09 01:13:18;;;;;;;13.98;9.45;;;;;;;16.37;100.00;93011.75;5021802;28;20026;-80
2023/09/09 01:15:43;;;;;;;14.80;9.75;;;;;;;16.36;100.00;93010.19;5007841;28;20042;-80
2023/09/09 01:18:09;;;;;;;18.20;9.48;;;;;;;16.38;100.00;93015.19;5024708;28;20041;-80
2023/09/09 01:20:39;;;;;;;16.23;9.85;;;;;;;16.34;100.00;93001.03;5024961;28;20046;-80
2023/09/09 01:23:04;;;;;;;14.65;9.98;;;;;;;16.36;100.00;93010.19;4982015;28;20037;-80
2023/09/09 01:25:30;;;;;;;12.73;8.52;;;;;;;16.33;100.00;93018.75;5022920;28;20097;-80
2023/09/09 01:27:55;;;;;;;18.42;9.57;;;;;;;16.36;100.00;93022.63;5031938;28;20064;-80
2023/09/09 01:30:21;;;;;;;17.20;10.23;;;;;;;16.35;100.00;93016.56;5027370;28;20045;-80
2023/09/09 01:32:47;;;;;;;16.42;9.50;;;;;;;16.34;100.00;93015.00;5027153;28;20045;-80
2023/09/09 01:35:13;;;;;;;16.48;10.00;;;;;;;16.32;100.00;93006.59;5042326;28;20117;-80
2023/09/09 01:37:39;;;;;;;18.30;10.77;;;;;;;16.32;100.00;93011.88;5043694;28;20120;-80
2023/09/09 01:40:10;;;;;;;16.00;9.82;;;;;;;16.32;100.00;93005.84;5038401;28;20068;-80
2023/09/09 01:42:37;;;;;;;15.63;9.38;;;;;;;16.30;100.00;93011.44;5045657;28;20060;-80
2023/09/09 01:45:03;;;;;;;15.13;9.05;;;;;;;16.28;100.00;93013.63;5025776;28;20029;-80
2023/09/09 01:47:29;;;;;;;14.70;9.57;;;;;;;16.28;100.00;93008.34;5025941;28;20037;-80
2023/09/09 01:49:54;;;;;;;15.38;10.20;;;;;;;16.27;100.00;93012.03;5026872;28;20048;-80
2023/09/09 01:52:20;;;;;;;13.82;9.63;;;;;;;16.27;100.00;93008.63;5039662;28;20038;-81
2023/09/09 01:54:45;;;;;;;16.15;9.90;;;;;;;16.24;100.00;93002.09;5012427;28;20045;-80
2023/09/09 01:57:11;;;;;;;14.18;9.90;;;;;;;16.24;100.00;93010.03;5047644;28;20496;-80
2023/09/09 01:59:37;;;;;;;15.02;9.50;;;;;;;16.23;100.00;93000.53;5030069;28;20042;-80
2023/09/09 02:02:03;;;;;;;13.38;9.73;;;;;;;16.22;100.00;93004.28;5029649;28;20030;-80
2023/09/09 02:04:28;;;;;;;13.02;9.38;;;;;;;16.22;100.00;93005.03;5032592;28;20035;-80
2023/09/09 02:06:54;;;;;;;13.68;9.55;;;;;;;16.20;100.00;93001.16;5047561;28;20041;-80
2023/09/09 02:09:20;;;;;;;16.27;10.00;;;;;;;16.19;100.00;93004.91;5014891;28;20030;-80
2023/09/09 02:11:45;;;;;;;13.68;9.45;;;;;;;16.18;100.00;92998.06;5030709;28;20045;-80
2023/09/09 02:14:11;;;;;;;15.48;9.85;;;;;;;16.16;100.00;92997.56;5030517;28;20041;-81
2023/09/09 02:16:36;;;;;;;13.77;9.23;;;;;;;16.15;100.00;92999.44;5027978;28;20111;-80
2023/09/09 02:19:02;;;;;;;18.20;9.57;;;;;;;16.12;100.00;92997.44;5046601;28;20096;-80
2023/09/09 02:21:29;;;;;;;17.73;10.05;;;;;;;16.12;100.00;92996.63;5047803;28;20053;-80
2023/09/09 02:23:54;;;;;;;17.77;10.45;;;;;;;16.10;100.00;92993.50;5048920;28;20048;-80
2023/09/09 02:26:20;;;;;;;14.55;9.38;;;;;;;16.07;100.00;92987.00;5028359;28;20041;-80
2023/09/09 02:28:46;;;;;;;20.40;10.45;;;;;;;16.04;100.00;92987.63;5023837;28;20144;-80
2023/09/09 02:31:12;;;;;;;15.20;10.23;;;;;;;16.06;100.00;92995.25;5028736;28;20040;-81
2023/09/09 02:33:37;;;;;;;16.08;10.07;;;;;;;16.02;100.00;92995.84;5047600;28;20029;-80
2023/09/09 02:36:03;;;;;;;19.05;10.05;;;;;;;16.03;100.00;93000.03;5048273;28;20093;-81
2023/09/09 02:38:30;;;;;;;15.55;10.45;;;;;;;16.04;100.00;93000.81;5028853;28;20030;-80
2023/09/09 02:40:55;;;;;;;16.83;10.43;;;;;;;16.01;100.00;92999.56;5047837;28;20095;-81
2023/09/09 02:43:21;;;;;;;19.50;10.32;;;;;;;16.01;100.00;92993.53;5041152;28;20014;-80
2023/09/09 02:45:47;;;;;;;17.50;10.35;;;;;;;16.00;100.00;92992.72;5012805;28;20160;-81
2023/09/09 02:48:12;;;;;;;16.02;10.13;;;;;;;16.02;100.00;92995.84;5046772;28;20033;-80
2023/09/09 02:50:38;;;;;;;17.15;9.52;;;;;;;16.00;100.00;92995.34;5047410;28;20088;-80
2023/09/09 02:53:03;;;;;;;13.85;9.73;;;;;;;15.98;100.00;92992.25;5030473;28;20120;-80
2023/09/09 02:55:29;;;;;;;12.85;9.35;;;;;;;15.96;100.00;92991.00;5027232;28;20045;-80
2023/09/09 02:57:55;;;;;;;16.70;10.60;;;;;;;15.94;100.00;92993.16;5013766;28;20495;-80
2023/09/09 03:00:21;;;;;;;15.68;9.93;;;;;;;15.94;100.00;92993.97;5047448;28;20053;-80
2023/09/09 03:02:47;;;;;;;14.05;10.23;;;;;;;15.94;100.00;92993.97;5047468;28;20033;-80
2023/09/09 03:05:13;;;;;;;16.88;10.15;;;;;;;15.93;100.00;92984.47;5037351;28;20033;-80
2023/09/09 03:07:39;;;;;;;15.10;10.35;;;;;;;15.93;100.00;92984.47;5027473;28;20030;-80
2023/09/09 03:10:05;;;;;;;15.13;10.38;;;;;;;15.93;100.00;92987.13;5026356;28;20046;-80
2023/09/09 03:12:31;;;;;;;13.95;9.93;;;;;;;15.94;100.00;92977.31;5028558;28;20061;-80
2023/09/09 03:14:57;;;;;;;16.13;10.02;;;;;;;15.93;100.00;92981.84;5045058;28;20033;-80
2023/09/09 03:17:22;;;;;;;12.80;10.07;;;;;;;15.92;100.00;92984.78;5045380;28;20029;-80
2023/09/09 03:19:48;;;;;;;19.38;11.07;;;;;;;15.90;100.00;92981.69;5028742;28;20111;-80
2023/09/09 03:22:14;;;;;;;15.32;10.80;;;;;;;15.90;100.00;92981.69;5028177;28;20036;-80
2023/09/09 03:24:39;;;;;;;15.07;10.20;;;;;;;15.89;100.00;92980.13;5013035;28;20045;-80
2023/09/09 03:27:05;;;;;;;14.15;10.57;;;;;;;15.87;100.00;92982.28;5029109;28;20120;-80
2023/09/09 03:29:30;;;;;;;16.13;10.05;;;;;;;15.87;100.00;92987.56;5007548;28;20050;-79
2023/09/09 03:31:56;;;;;;;17.67;10.18;;;;;;;15.85;100.00;92992.38;5027026;28;20053;-81
2023/09/09 03:34:22;;;;;;;15.02;10.07;;;;;;;15.85;100.00;92989.72;5026454;28;20149;-80
2023/09/09 03:36:47;;;;;;;16.63;10.32;;;;;;;15.83;100.00;92992.69;5010151;28;20033;-81
2023/09/09 03:39:13;;;;;;;17.90;11.10;;;;;;;15.83;100.00;92987.41;5004844;28;20064;-80
2023/09/09 03:41:39;;;;;;;20.83;11.13;;;;;;;15.85;100.00;92984.44;4994706;28;20102;-81
2023/09/09 03:44:05;;;;;;;16.08;10.15;;;;;;;15.85;100.00;92987.88;4990229;28;20519;-81
2023/09/09 03:46:31;;;;;;;15.30;10.70;;;;;;;15.84;100.00;92983.69;5007258;28;20026;-80
2023/09/09 03:48:58;;;;;;;14.93;9.70;;;;;;;15.81;100.00;92984.28;5004916;28;20125;-81
2023/09/09 03:51:24;;;;;;;16.60;10.45;;;;;;;15.80;100.00;92978.22;4990898;28;20030;-80
2023/09/09 03:53:50;;;;;;;14.35;9.48;;;;;;;15.78;100.00;92984.88;4991045;28;20049;-81
2023/09/09 03:56:17;;;;;;;17.13;10.55;;;;;;;15.79;100.00;92981.19;5008773;28;20048;-80
2023/09/09 03:58:43;;;;;;;15.70;9.63;;;;;;;15.79;100.00;92981.19;5007060;28;20455;-80
2023/09/09 04:01:12;;;;;;;17.05;10.15;;;;;;;15.77;100.00;92976.19;5006049;28;20065;-80
2023/09/09 04:03:39;;;;;;;16.48;9.93;;;;;;;15.77;100.00;92980.72;5003569;28;20041;-80
2023/09/09 04:06:09;;;;;;;14.27;10.20;;;;;;;15.77;100.00;92978.06;5007473;28;20053;-80
2023/09/09 04:08:36;;;;;;;15.35;9.85;;;;;;;15.74;100.00;92976.06;4990190;28;20100;-80
2023/09/09 04:11:03;;;;;;;15.23;10.02;;;;;;;15.74;100.00;92979.47;5005871;28;20104;-80
2023/09/09 04:13:29;;;;;;;21.77;12.15;;;;;;;15.73;100.00;92969.97;5004507;28;20096;-80
2023/09/09 04:15:56;;;;;;;21.60;11.50;;;;;;;15.72;100.00;92975.56;5018552;28;20031;-80
2023/09/09 04:18:23;;;;;;;14.68;10.23;;;;;;;15.72;100.00;92976.34;4972540;28;20026;-80
2023/09/09 04:20:49;;;;;;;14.27;10.13;;;;;;;15.71;100.00;92974.78;4988879;28;20034;-80
2023/09/09 04:23:16;;;;;;;16.52;11.05;;;;;;;15.68;100.00;92971.97;5005236;28;20076;-80
2023/09/09 04:25:43;;;;;;;16.77;10.63;;;;;;;15.66;100.00;92972.25;5025266;28;20041;-80
2023/09/09 04:28:10;;;;;;;15.25;10.93;;;;;;;15.66;100.00;92976.75;5010513;28;20042;-80
2023/09/09 04:30:39;;;;;;;17.30;11.52;;;;;;;15.66;100.00;92980.16;5023041;28;20065;-80
2023/09/09 04:33:11;;;;;;;16.58;10.52;;;;;;;15.62;100.00;92972.06;5008424;28;20042;-81
2023/09/09 04:35:41;;;;;;;16.42;10.43;;;;;;;15.64;100.00;92974.41;5024612;28;20038;-80
2023/09/09 04:38:07;;;;;;;17.13;9.63;;;;;;;15.62;100.00;92974.72;5024004;28;20033;-81
2023/09/09 04:40:34;;;;;;;15.43;10.70;;;;;;;15.62;100.00;92977.34;5023140;28;20033;-80
2023/09/09 04:43:00;;;;;;;16.27;10.80;;;;;;;15.63;100.00;92983.44;5024954;28;20045;-80
2023/09/09 04:45:25;;;;;;;15.57;10.88;;;;;;;15.60;100.00;92976.91;5021482;28;20042;-80
2023/09/09 04:47:51;;;;;;;16.95;10.63;;;;;;;15.60;100.00;92973.47;5022999;28;20037;-80
2023/09/09 04:50:19;;;;;;;17.23;10.57;;;;;;;15.59;100.00;92977.97;5024214;28;20504;-80
2023/09/09 04:52:45;;;;;;;16.77;10.40;;;;;;;15.59;100.00;92972.69;5019050;28;20102;-80
2023/09/09 04:55:12;;;;;;;15.60;10.82;;;;;;;15.58;100.00;92970.34;5004173;28;20504;-80
2023/09/09 04:57:38;;;;;;;15.15;10.32;;;;;;;15.54;100.00;92964.91;5008171;28;20026;-80
2023/09/09 05:00:06;;;;;;;12.90;9.93;;;;;;;15.57;100.00;92976.72;5023723;28;20045;-79
2023/09/09 05:02:34;;;;;;;13.35;10.23;;;;;;;15.54;100.00;92964.91;5014004;28;20057;-80
2023/09/09 05:05:03;;;;;;;15.27;10.13;;;;;;;15.55;100.00;92970.97;5014685;28;20037;-80
2023/09/09 05:07:34;;;;;;;13.75;10.05;;;;;;;15.55;100.00;92974.38;5021869;28;20041;-80
2023/09/09 05:10:04;;;;;;;14.25;10.48;;;;;;;15.56;100.00;92970.69;5006368;28;20034;-81
2023/09/09 05:12:37;;;;;;;15.10;10.65;;;;;;;15.59;100.00;92972.69;5022748;28;20069;-80
2023/09/09 05:15:10;;;;;;;14.18;9.75;;;;;;;15.60;100.00;92966.34;5017762;28;20022;-81
2023/09/09 05:17:36;;;;;;;16.35;10.45;;;;;;;15.64;100.00;92976.28;5016858;28;20058;-81
2023/09/09 05:20:02;;;;;;;19.30;10.07;;;;;;;15.69;100.00;92976.13;5012245;28;20034;-81
2023/09/09 05:22:28;;;;;;;13.88;10.15;;;;;;;15.77;100.00;92972.78;5009677;28;20040;-81
2023/09/09 05:24:54;;;;;;;15.23;10.10;;;;;;;15.82;100.00;92976.06;5005724;28;20026;-82
2023/09/09 05:27:20;;;;;;;19.58;10.88;;;;;;;15.88;100.00;92981.97;5002616;28;20439;-83
2023/09/09 05:29:47;;;;;;;13.70;10.57;;;;;;;15.92;100.00;92969.72;4991301;28;20042;-84
2023/09/09 05:32:12;;;;;;;17.58;10.68;;;;;;;16.01;100.00;92973.16;4984321;28;20034;-83
2023/09/09 05:34:38;;;;;;;14.65;10.75;;;;;;;16.11;100.00;92976.59;5010934;28;20431;-83
2023/09/09 05:37:04;;;;;;;18.63;10.45;;;;;;;16.19;100.00;92978.50;4993291;28;20033;-84
2023/09/09 05:39:30;;;;;;;17.63;12.20;;;;;;;16.29;100.00;92983.47;4991710;28;20030;-82
2023/09/09 05:41:56;;;;;;;17.90;11.40;;;;;;;16.39;100.00;92982.38;4993776;28;20081;-82
2023/09/09 05:44:21;;;;;;;14.98;10.52;;;;;;;16.49;100.00;92986.59;5006412;28;20546;-86
2023/09/09 05:46:47;;;;;;;16.58;10.23;;;;;;;16.60;100.00;92991.25;4985887;28;20038;-83
2023/09/09 05:49:12;;;;;;;20.42;11.10;;;;;;;16.70;100.00;92992.03;4988136;28;20029;-83
2023/09/09 05:51:38;;;;;;;18.27;11.23;;;;;;;16.80;100.00;92991.75;5010312;28;20358;-84
2023/09/09 05:54:04;;;;;;;13.25;10.52;;;;;;;16.93;100.00;92984.75;4992048;28;20045;-82
2023/09/09 05:56:29;;;;;;;15.38;10.07;;;;;;;17.05;100.00;92993.59;4983295;28;20045;-84
2023/09/09 05:58:55;;;;;;;16.55;9.90;;;;;;;17.36;100.00;92991.81;4992709;28;20064;-82
2023/09/09 06:01:23;;;;;;;15.02;9.65;;;;;;;18.18;100.00;92989.78;4991094;28;20048;-82
2023/09/09 06:03:54;;;;;;;16.27;10.05;;;;;;;19.05;100.00;92993.69;4991287;28;20065;-83
2023/09/09 06:06:22;;;;;;;15.60;10.05;;;;;;;19.82;100.00;92988.72;4993067;28;20540;-83
2023/09/09 06:08:47;;;;;;;13.77;8.93;;;;;;;20.50;100.00;92982.03;4992550;28;20345;-81
2023/09/09 06:11:13;;;;;;;12.77;9.07;;;;;;;21.23;100.00;92994.34;4986135;28;20030;-84
2023/09/09 06:13:38;;;;;;;12.27;9.07;;;;;;;21.87;100.00;92992.56;5005401;28;20037;-81
2023/09/09 06:16:04;;;;;;;13.85;8.57;;;;;;;22.43;100.00;92994.25;5012227;28;20046;-81
2023/09/09 06:18:30;;;;;;;15.05;7.82;;;;;;;22.89;100.00;92999.78;4992776;28;20030;-81
2023/09/09 06:20:57;;;;;;;12.95;8.50;;;;;;;23.38;100.00;92999.25;4996201;28;20042;-81
2023/09/09 06:23:23;;;;;;;13.85;7.82;;;;;;;23.91;100.00;92995.97;4990903;28;20298;-79
2023/09/09 06:25:50;;;;;;;12.15;8.20;;;;;;;24.33;100.00;93003.13;5007885;28;20026;-79
2023/09/09 06:28:16;;;;;;;15.00;8.55;;;;;;;24.81;100.00;92997.31;4998958;28;20053;-83
2023/09/09 06:30:43;;;;;;;15.93;8.27;;;;;;;24.90;100.00;93003.16;5006037;28;20041;-83
2023/09/09 06:33:09;;;;;;;13.00;8.85;;;;;;;25.19;100.00;93000.88;5004364;28;20038;-83
2023/09/09 06:35:35;;;;;;;15.38;8.02;;;;;;;25.81;100.00;93011.88;5012752;28;20049;-84
2023/09/09 06:38:01;;;;;;;13.45;7.25;;;;;;;26.32;100.00;93005.81;4999250;28;20030;-83
2023/09/09 06:40:27;;;;;;;11.05;7.47;;;;;;;26.79;100.00;93001.53;4991512;28;20124;-83
2023/09/09 06:42:54;;;;;;;10.25;7.18;;;;;;;27.31;100.00;93001.41;4984223;28;20052;-83
2023/09/09 06:45:20;;;;;;;10.10;7.18;;;;;;;27.53;100.00;92999.53;5012586;28;20052;-84
2023/09/09 06:47:45;;;;;;;8.82;6.90;;;;;;;27.81;94.94;93001.53;5026754;28;20056;-83
2023/09/09 06:50:11;;;;;;;13.60;7.47;;;;;;;27.68;91.74;93000.34;4995850;28;20084;-83
2023/09/09 06:52:38;;;;;;;10.10;7.03;;;;;;;27.40;90.54;93009.09;5009644;28;20034;-83
2023/09/09 06:55:08;;;;;;;9.30;7.15;;;;;;;27.16;93.87;93003.25;4993494;28;20076;-83
2023/09/09 06:57:34;;;;;;;8.88;6.88;;;;;;;27.71;90.43;93013.03;5010299;28;20053;-83
2023/09/09 06:59:59;;;;;;;10.10;7.05;;;;;;;28.02;88.47;93016.19;5009234;28;20077;-82
2023/09/09 07:02:25;;;;;;;9.10;7.10;;;;;;;27.77;89.01;93014.19;5022378;28;20057;-83
2023/09/09 07:04:53;;;;;;;9.48;6.53;;;;;;;28.05;89.53;93009.25;5026809;28;20013;-83
2023/09/09 07:07:18;;;;;;;13.82;7.80;;;;;;;27.36;91.91;93016.41;5023105;28;20025;-82
2023/09/09 07:09:44;;;;;;;9.63;7.10;;;;;;;27.38;92.23;93006.81;5009078;28;20040;-83
2023/09/09 07:12:10;;;;;;;9.55;7.13;;;;;;;27.46;94.22;93012.97;5023610;28;20037;-82
2023/09/09 07:14:36;;;;;;;9.35;6.90;;;;;;;26.93;93.28;93016.16;5006029;28;20049;-82
2023/09/09 07:17:03;;;;;;;9.02;7.55;;;;;;;26.26;98.99;93019.94;5003096;28;20038;-82
2023/09/09 07:19:29;;;;;;;10.52;6.80;;;;;;;25.86;100.00;93016.88;5006729;28;20048;-82
2023/09/09 07:21:54;;;;;;;11.27;7.32;;;;;;;25.84;100.00;93013.81;5039725;28;20038;-82
2023/09/09 07:24:20;;;;;;;11.50;7.18;;;;;;;25.74;100.00;93009.13;5022043;28;20033;-81
2023/09/09 07:26:45;;;;;;;11.93;7.25;;;;;;;24.78;100.00;93011.44;5040298;28;20045;-82
2023/09/09 07:29:11;;;;;;;13.50;8.65;;;;;;;24.65;100.00;93008.19;5042961;28;20076;-82
2023/09/09 07:31:37;;;;;;;13.57;7.30;;;;;;;24.90;100.00;93013.88;4994115;28;20065;-82
2023/09/09 07:34:02;;;;;;;13.02;7.35;;;;;;;24.62;100.00;93012.38;5041169;28;20038;-82
2023/09/09 07:36:28;;;;;;;10.88;6.78;;;;;;;24.20;100.00;93009.81;5058280;28;20060;-82
2023/09/09 07:38:54;;;;;;;9.93;7.30;;;;;;;23.88;100.00;93010.84;5057782;28;20029;-82
2023/09/09 07:41:20;;;;;;;10.80;7.50;;;;;;;23.93;100.00;93014.34;5035014;28;20101;-81
2023/09/09 07:43:45;;;;;;;11.35;7.82;;;;;;;23.73;100.00;93016.25;5025300;28;20057;-82
2023/09/09 07:46:11;;;;;;;12.82;7.63;;;;;;;23.69;100.00;93010.88;5025147;28;20128;-82
2023/09/09 07:48:36;;;;;;;11.98;7.97;;;;;;;23.58;100.00;93012.59;5038133;28;20495;-82
2023/09/09 07:51:02;;;;;;;11.63;7.35;;;;;;;23.62;100.00;93013.41;5043397;28;20068;-82
2023/09/09 07:53:28;;;;;;;11.23;8.05;;;;;;;23.63;100.00;93009.63;5008154;28;20042;-82
2023/09/09 07:55:54;;;;;;;11.43;7.35;;;;;;;23.61;100.00;93014.53;4992779;28;20068;-82
2023/09/09 07:58:19;;;;;;;9.73;6.85;;;;;;;23.62;100.00;93016.06;5008040;28;20052;-81
2023/09/09 08:00:46;;;;;;;13.90;7.65;;;;;;;23.38;100.00;93015.28;5007763;28;20279;-82
2023/09/09 08:03:13;;;;;;;12.82;8.23;;;;;;;23.31;100.00;93020.50;5042467;28;20103;-81
2023/09/09 08:05:40;;;;;;;11.10;8.05;;;;;;;23.40;100.00;93021.03;5028041;28;20029;-82
2023/09/09 08:08:06;;;;;;;9.88;7.40;;;;;;;23.34;100.00;93019.78;5043722;28;20069;-81
2023/09/09 08:10:35;;;;;;;12.32;8.57;;;;;;;23.18;100.00;93016.41;5025885;28;20045;-82
2023/09/09 08:13:01;;;;;;;13.90;8.10;;;;;;;23.38;100.00;93022.53;5025612;28;20030;-82
2023/09/09 08:15:27;;;;;;;12.55;7.72;;;;;;;23.10;100.00;93028.06;5007169;28;20069;-83
2023/09/09 08:17:53;;;;;;;11.52;7.55;;;;;;;23.26;100.00;93028.78;5025412;28;20034;-84
2023/09/09 08:20:18;;;;;;;10.38;8.27;;;;;;;22.93;100.00;93027.34;5039361;28;20044;-83
2023/09/09 08:22:44;;;;;;;9.60;7.63;;;;;;;22.85;100.00;93020.28;5040855;28;20542;-83
2023/09/09 08:25:11;;;;;;;17.92;8.38;;;;;;;22.81;100.00;93030.91;5037128;28;20056;-83
2023/09/09 08:27:38;;;;;;;12.82;7.55;;;;;;;22.91;100.00;93018.91;5044855;28;20117;-83
2023/09/09 08:30:06;;;;;;;10.60;7.70;;;;;;;23.11;100.00;93016.28;5044736;28;20041;-83
2023/09/09 08:32:31;;;;;;;11.10;7.78;;;;;;;23.29;100.00;93017.38;5046235;28;20037;-82
2023/09/09 08:34:58;;;;;;;11.02;7.75;;;;;;;23.34;100.00;93019.00;5045224;28;20557;-84
2023/09/09 08:37:25;;;;;;;11.35;7.50;;;;;;;23.45;100.00;93020.75;5045877;28;20067;-83
2023/09/09 08:39:53;;;;;;;15.65;7.63;;;;;;;23.25;100.00;93021.88;5041074;28;20038;-83
2023/09/09 08:42:45;;;;;;;15.07;8.52;;;;;;;23.37;100.00;93028.97;5025368;28;20034;-83
2023/09/09 08:45:20;;;;;;;11.23;8.13;;;;;;;23.12;100.00;93023.91;5027182;28;20037;-83
2023/09/09 08:47:48;;;;;;;13.45;8.35;;;;;;;23.04;100.00;93020.34;5034813;28;20070;-83
2023/09/09 08:50:16;;;;;;;11.48;7.95;;;;;;;23.30;100.00;93016.25;5026156;28;20054;-83
2023/09/09 08:52:43;;;;;;;11.27;7.45;;;;;;;23.16;100.00;93018.66;5025739;28;20040;-84
2023/09/09 08:55:10;;;;;;;10.90;8.10;;;;;;;22.95;100.00;93019.75;5024546;28;20038;-83
2023/09/09 08:57:36;;;;;;;13.65;8.52;;;;;;;23.19;100.00;93025.97;5010059;28;20033;-83
2023/09/09 09:00:04;;;;;;;12.63;9.40;;;;;;;23.21;100.00;93026.38;5026043;28;20117;-83
2023/09/09 09:02:30;;;;;;;13.80;9.60;;;;;;;23.03;100.00;93021.47;5026184;28;20030;-83
2023/09/09 09:04:56;;;;;;;11.05;8.70;;;;;;;23.20;100.00;93025.63;5001439;28;20050;-83
2023/09/09 09:07:27;;;;;;;11.82;9.05;;;;;;;23.25;100.00;93013.88;5026282;28;20033;-83
2023/09/09 09:09:54;;;;;;;17.63;9.68;;;;;;;23.15;100.00;93017.13;5041099;28;20037;-83
2023/09/09 09:12:21;;;;;;;12.75;8.95;;;;;;;23.27;100.00;93019.63;5045449;28;20045;-83
2023/09/09 09:14:47;;;;;;;17.52;10.30;;;;;;;23.40;100.00;93021.03;5027586;28;20079;-83
2023/09/09 09:17:20;;;;;;;14.30;8.77;;;;;;;23.52;100.00;93022.00;5031374;28;20030;-83
2023/09/09 09:19:46;;;;;;;11.80;8.95;;;;;;;23.63;100.00;93014.97;4990980;28;20673;-83
2023/09/09 09:22:14;;;;;;;14.32;9.52;;;;;;;23.68;100.00;93007.41;5025927;28;20036;-82
2023/09/09 09:24:44;;;;;;;12.45;8.68;;;;;;;23.62;100.00;93018.75;5033247;28;20037;-83
2023/09/09 09:27:11;;;;;;;17.40;9.82;;;;;;;23.49;100.00;93016.25;5036022;28;20041;-83
2023/09/09 09:29:47;;;;;;;12.40;8.75;;;;;;;23.37;100.00;93016.41;5025874;28;20038;-83
2023/09/09 09:32:15;;;;;;;13.30;9.48;;;;;;;23.38;100.00;93015.28;5025312;28;20033;-83
2023/09/09 09:34:41;;;;;;;13.35;9.77;;;;;;;23.49;100.00;93005.56;5025594;28;20030;-83
2023/09/09 09:37:12;;;;;;;16.17;10.85;;;;;;;23.75;100.00;93012.13;5034387;28;20039;-82
2023/09/09 09:39:39;;;;;;;16.23;8.88;;;;;;;23.92;100.00;93012.81;5038681;28;20049;-82
2023/09/09 09:42:05;;;;;;;18.35;11.15;;;;;;;23.94;100.00;93019.34;5024568;28;20109;-83
2023/09/09 09:44:31;;;;;;;14.25;9.95;;;;;;;24.12;100.00;93003.59;5023766;28;20088;-83
2023/09/09 09:47:04;;;;;;;12.65;9.30;;;;;;;24.04;100.00;93008.03;5024363;28;20038;-82
2023/09/09 09:49:41;;;;;;;14.63;9.32;;;;;;;24.05;100.00;93003.47;5023303;28;20048;-82
2023/09/09 09:52:08;;;;;;;14.00;9.82;;;;;;;23.84;100.00;93010.00;5044632;28;20033;-82
2023/09/09 09:54:35;;;;;;;14.90;11.10;;;;;;;23.68;100.00;93010.06;5042995;28;20046;-82
2023/09/09 09:57:03;;;;;;;12.80;9.40;;;;;;;23.81;100.00;92993.91;5041447;28;20064;-83
2023/09/09 09:59:34;;;;;;;16.55;9.93;;;;;;;23.58;100.00;93004.56;5028608;28;20034;-82
2023/09/09 10:02:00;;;;;;;14.32;9.20;;;;;;;23.84;100.00;92991.28;5042035;28;20030;-81
2023/09/09 10:04:30;;;;;;;12.55;9.60;;;;;;;23.95;100.00;92999.47;5043945;28;20022;-82
2023/09/09 10:06:59;;;;;;;14.60;9.68;;;;;;;23.98;100.00;92988.09;5043462;28;20060;-82
2023/09/09 10:09:33;;;;;;;17.05;9.73;;;;;;;24.04;100.00;92989.31;5043025;28;20052;-83
2023/09/09 10:12:10;;;;;;;12.57;9.55;;;;;;;24.00;100.00;92991.19;5017254;28;20038;-82
2023/09/09 10:14:38;;;;;;;14.32;9.30;;;;;;;24.16;100.00;92987.56;5044213;28;20392;-82
2023/09/09 10:17:09;;;;;;;13.93;9.95;;;;;;;24.15;100.00;92991.41;5047351;28;20048;-83
2023/09/09 10:19:38;;;;;;;14.65;9.98;;;;;;;23.98;100.00;92989.97;5030492;28;20044;-82
2023/09/09 10:22:07;;;;;;;16.52;10.45;;;;;;;24.15;100.00;92991.41;5017344;28;20060;-83
2023/09/09 10:24:34;;;;;;;19.90;10.57;;;;;;;24.19;100.00;92989.56;5010988;28;20036;-82
2023/09/09 10:27:02;;;;;;;14.63;9.35;;;;;;;24.49;96.91;92985.03;5031195;28;20022;-82
2023/09/09 10:29:30;;;;;;;17.20;9.55;;;;;;;24.42;96.82;92994.84;5028453;28;20090;-81
2023/09/09 10:32:01;;;;;;;16.27;9.50;;;;;;;24.16;98.24;92977.69;5029071;28;20060;-83
2023/09/09 10:34:28;;;;;;;10.88;8.35;;;;;;;24.37;100.00;92977.22;5047862;28;20414;-82
2023/09/09 10:36:56;;;;;;;17.00;9.63;;;;;;;24.28;99.73;92979.38;5047813;28;20097;-82
2023/09/09 10:39:24;;;;;;;16.55;9.23;;;;;;;24.50;100.00;92981.25;5047291;28;20057;-82
2023/09/09 10:41:50;;;;;;;14.45;9.48;;;;;;;24.59;99.33;92975.63;5026994;28;20045;-82
2023/09/09 10:44:16;;;;;;;12.57;8.93;;;;;;;24.55;96.32;92966.78;5028047;28;20041;-82
2023/09/09 10:46:42;;;;;;;13.43;8.93;;;;;;;24.68;95.97;92970.78;5010251;28;20046;-83
2023/09/09 10:49:07;;;;;;;11.30;8.93;;;;;;;24.92;97.00;92980.25;5033027;28;20065;-83
2023/09/09 10:51:49;;;;;;;15.55;9.70;;;;;;;24.78;94.52;92973.97;5027032;28;20419;-83
2023/09/09 10:54:19;;;;;;;14.25;9.63;;;;;;;25.05;95.37;92967.41;5025420;28;20133;-81
2023/09/09 10:56:50;;;;;;;11.98;9.30;;;;;;;24.95;94.78;92976.09;5046392;28;20123;-82
2023/09/09 10:59:20;;;;;;;12.95;7.82;;;;;;;24.98;91.45;92971.91;5015500;28;20064;-83
2023/09/09 11:01:48;;;;;;;14.77;9.52;;;;;;;24.92;92.62;92974.88;5009690;28;20121;-83
2023/09/09 11:04:23;;;;;;;16.13;8.18;;;;;;;25.00;93.32;92965.06;5025221;28;20427;-83
2023/09/09 11:07:17;;;;;;;13.50;8.82;;;;;;;24.92;99.44;92964.19;5047584;28;20035;-83
2023/09/09 11:09:51;;;;;;;12.02;8.63;;;;;;;24.79;94.67;92962.91;5007013;28;20366;-82
2023/09/09 11:12:17;;;;;;;14.43;9.30;;;;;;;24.71;95.42;92963.94;5027002;28;20068;-83
2023/09/09 11:14:45;;;;;;;13.02;8.05;;;;;;;24.74;97.80;92963.19;5040045;28;20033;-82
2023/09/09 11:17:11;;;;;;;15.45;9.13;;;;;;;24.73;91.17;92962.44;5045647;28;20045;-82